Aviation Digital Data Service (ADDS)

Output produced by METARs form (1054 UTC 17 June 2019)
found at http://www.aviationweather.gov/metar/data/
 
Forecast for: GCTS (TENERIFE SUR/REI, ES)
Text: TAF GCTS 170800Z 1709/1809 21012KT 9999 FEW035 TX26/1715Z TN18/1806Z
Forecast period: 0900 to 1700 UTC 17 June 2019
Forecast type: FROM: standard forecast or significant change
Winds: from the SSW (210 degrees) at 14 MPH (12 knots; 6.2 m/s)
Visibility: 6 or more miles 10+ km)
Ceiling: at least 12,000 feet AGL
Clouds: few clouds at 3500 feet AGL
Weather: no significant weather forecast for this period
Text: BECMG 1717/1719 08009KT
Forecast period: 1700 UTC 17 June 2019 to 0900 UTC 18 June 2019
Forecast type: BECOMING: Conditions expected to become as follows by 1900 UTC 17 June 2019
Winds: from the E (80 degrees) at 10 MPH (9 knots; 4.6 m/s)
Visibility: 6 or more miles 10+ km)
Ceiling: at least 12,000 feet AGL
Clouds: few clouds at 3500 feet AGL
Weather: no significant weather forecast for this period